sensor_id;sensor_type;location;lat;lon;timestamp;temperature;humidity
51811;DHT22;52468;40.116;18.296;2023-04-01T00:00:52;16.60;80.80
51811;DHT22;52468;40.116;18.296;2023-04-01T00:03:21;16.60;80.60
51811;DHT22;52468;40.116;18.296;2023-04-01T00:05:50;16.60;80.60
51811;DHT22;52468;40.116;18.296;2023-04-01T00:08:18;16.60;80.60
51811;DHT22;52468;40.116;18.296;2023-04-01T00:10:46;16.60;80.40
51811;DHT22;52468;40.116;18.296;2023-04-01T00:13:14;16.60;80.70
51811;DHT22;52468;40.116;18.296;2023-04-01T00:15:43;16.60;80.60
51811;DHT22;52468;40.116;18.296;2023-04-01T00:18:11;16.70;80.60
51811;DHT22;52468;40.116;18.296;2023-04-01T00:20:42;16.70;80.40
51811;DHT22;52468;40.116;18.296;2023-04-01T00:23:11;16.60;80.60
51811;DHT22;52468;40.116;18.296;2023-04-01T00:25:39;16.60;80.80
51811;DHT22;52468;40.116;18.296;2023-04-01T00:28:07;16.60;80.60
51811;DHT22;52468;40.116;18.296;2023-04-01T00:30:36;16.70;80.60
51811;DHT22;52468;40.116;18.296;2023-04-01T00:33:04;16.70;80.50
51811;DHT22;52468;40.116;18.296;2023-04-01T00:35:32;16.70;80.60
51811;DHT22;52468;40.116;18.296;2023-04-01T00:38:00;16.70;80.60
51811;DHT22;52468;40.116;18.296;2023-04-01T00:40:34;16.70;80.70
51811;DHT22;52468;40.116;18.296;2023-04-01T00:43:03;16.70;80.50
51811;DHT22;52468;40.116;18.296;2023-04-01T00:45:39;16.70;80.70
51811;DHT22;52468;40.116;18.296;2023-04-01T00:48:11;16.70;80.80
51811;DHT22;52468;40.116;18.296;2023-04-01T00:53:47;16.70;80.70
51811;DHT22;52468;40.116;18.296;2023-04-01T00:56:19;16.70;80.80
51811;DHT22;52468;40.116;18.296;2023-04-01T00:58:55;16.70;80.60
51811;DHT22;52468;40.116;18.296;2023-04-01T01:01:24;16.70;80.60
51811;DHT22;52468;40.116;18.296;2023-04-01T01:03:53;16.70;80.80
51811;DHT22;52468;40.116;18.296;2023-04-01T01:09:17;16.60;80.60
51811;DHT22;52468;40.116;18.296;2023-04-01T01:17:44;16.70;81.00
51811;DHT22;52468;40.116;18.296;2023-04-01T01:32:25;16.60;80.70
51811;DHT22;52468;40.116;18.296;2023-04-01T01:38:00;16.50;80.90
51811;DHT22;52468;40.116;18.296;2023-04-01T01:40:31;16.50;80.80
51811;DHT22;52468;40.116;18.296;2023-04-01T01:43:05;16.50;81.20
51811;DHT22;52468;40.116;18.296;2023-04-01T01:45:35;16.40;81.30
51811;DHT22;52468;40.116;18.296;2023-04-01T01:48:07;16.50;81.40
51811;DHT22;52468;40.116;18.296;2023-04-01T01:50:37;16.50;80.80
51811;DHT22;52468;40.116;18.296;2023-04-01T01:53:09;16.50;81.00
51811;DHT22;52468;40.116;18.296;2023-04-01T01:55:39;16.30;81.30
51811;DHT22;52468;40.116;18.296;2023-04-01T01:58:24;16.40;81.50
51811;DHT22;52468;40.116;18.296;2023-04-01T02:00:59;16.30;81.40
51811;DHT22;52468;40.116;18.296;2023-04-01T02:03:31;16.30;80.90
51811;DHT22;52468;40.116;18.296;2023-04-01T02:06:02;16.30;80.90
51811;DHT22;52468;40.116;18.296;2023-04-01T02:08:50;16.10;80.90
51811;DHT22;52468;40.116;18.296;2023-04-01T02:11:24;16.00;81.10
51811;DHT22;52468;40.116;18.296;2023-04-01T02:14:00;16.00;81.40
51811;DHT22;52468;40.116;18.296;2023-04-01T02:17:04;16.00;81.50
51811;DHT22;52468;40.116;18.296;2023-04-01T02:19:39;15.90;81.80
51811;DHT22;52468;40.116;18.296;2023-04-01T02:22:11;15.80;81.80
51811;DHT22;52468;40.116;18.296;2023-04-01T02:24:41;15.80;82.00
51811;DHT22;52468;40.116;18.296;2023-04-01T02:27:11;15.90;82.50
51811;DHT22;52468;40.116;18.296;2023-04-01T02:29:39;15.90;82.60
51811;DHT22;52468;40.116;18.296;2023-04-01T02:32:08;15.90;82.50
51811;DHT22;52468;40.116;18.296;2023-04-01T02:34:37;15.90;82.50
51811;DHT22;52468;40.116;18.296;2023-04-01T02:37:05;15.90;82.50
51811;DHT22;52468;40.116;18.296;2023-04-01T02:39:33;15.90;82.60
51811;DHT22;52468;40.116;18.296;2023-04-01T02:42:01;16.00;82.70
51811;DHT22;52468;40.116;18.296;2023-04-01T02:44:29;16.00;82.40
51811;DHT22;52468;40.116;18.296;2023-04-01T02:46:58;15.90;82.60
51811;DHT22;52468;40.116;18.296;2023-04-01T02:49:26;15.90;82.80
51811;DHT22;52468;40.116;18.296;2023-04-01T02:51:54;15.90;82.50
51811;DHT22;52468;40.116;18.296;2023-04-01T02:54:21;15.90;82.30
51811;DHT22;52468;40.116;18.296;2023-04-01T02:56:49;15.80;82.30
51811;DHT22;52468;40.116;18.296;2023-04-01T02:59:17;15.80;82.40
51811;DHT22;52468;40.116;18.296;2023-04-01T03:01:45;15.70;82.30
51811;DHT22;52468;40.116;18.296;2023-04-01T03:04:13;15.60;82.40
51811;DHT22;52468;40.116;18.296;2023-04-01T03:06:41;15.60;82.30
51811;DHT22;52468;40.116;18.296;2023-04-01T03:09:09;15.50;82.30
51811;DHT22;52468;40.116;18.296;2023-04-01T03:11:36;15.50;82.30
51811;DHT22;52468;40.116;18.296;2023-04-01T03:14:04;15.50;82.40
51811;DHT22;52468;40.116;18.296;2023-04-01T03:16:32;15.40;82.60
51811;DHT22;52468;40.116;18.296;2023-04-01T03:19:01;15.30;82.80
51811;DHT22;52468;40.116;18.296;2023-04-01T03:21:31;15.30;82.90
51811;DHT22;52468;40.116;18.296;2023-04-01T03:24:00;15.30;82.80
51811;DHT22;52468;40.116;18.296;2023-04-01T03:26:29;15.30;82.90
51811;DHT22;52468;40.116;18.296;2023-04-01T03:29:00;15.20;83.20
51811;DHT22;52468;40.116;18.296;2023-04-01T03:31:28;15.20;83.20
51811;DHT22;52468;40.116;18.296;2023-04-01T03:33:57;15.20;83.10
51811;DHT22;52468;40.116;18.296;2023-04-01T03:36:25;15.20;83.30
51811;DHT22;52468;40.116;18.296;2023-04-01T03:38:53;15.20;83.20
51811;DHT22;52468;40.116;18.296;2023-04-01T03:41:31;15.10;83.30
51811;DHT22;52468;40.116;18.296;2023-04-01T03:44:00;15.10;83.40
51811;DHT22;52468;40.116;18.296;2023-04-01T03:46:28;15.10;83.30
51811;DHT22;52468;40.116;18.296;2023-04-01T03:48:56;15.10;83.30
51811;DHT22;52468;40.116;18.296;2023-04-01T03:51:23;15.10;83.40
51811;DHT22;52468;40.116;18.296;2023-04-01T03:53:52;15.10;83.30
51811;DHT22;52468;40.116;18.296;2023-04-01T03:56:20;15.10;83.60
51811;DHT22;52468;40.116;18.296;2023-04-01T03:58:48;15.10;83.80
51811;DHT22;52468;40.116;18.296;2023-04-01T04:01:21;15.20;83.80
51811;DHT22;52468;40.116;18.296;2023-04-01T04:03:53;15.20;83.50
51811;DHT22;52468;40.116;18.296;2023-04-01T04:06:23;15.30;83.70
51811;DHT22;52468;40.116;18.296;2023-04-01T04:08:52;15.30;84.10
51811;DHT22;52468;40.116;18.296;2023-04-01T04:11:21;15.40;84.10
51811;DHT22;52468;40.116;18.296;2023-04-01T04:13:51;15.50;84.10
51811;DHT22;52468;40.116;18.296;2023-04-01T04:16:20;15.40;84.10
51811;DHT22;52468;40.116;18.296;2023-04-01T04:18:55;15.50;83.90
51811;DHT22;52468;40.116;18.296;2023-04-01T04:21:25;15.40;83.70
51811;DHT22;52468;40.116;18.296;2023-04-01T04:23:53;15.30;83.60
51811;DHT22;52468;40.116;18.296;2023-04-01T04:26:21;15.30;84.00
51811;DHT22;52468;40.116;18.296;2023-04-01T04:29:07;15.20;84.00
51811;DHT22;52468;40.116;18.296;2023-04-01T04:31:34;15.30;83.90
51811;DHT22;52468;40.116;18.296;2023-04-01T04:34:02;15.20;83.90
51811;DHT22;52468;40.116;18.296;2023-04-01T04:36:34;15.20;83.90
51811;DHT22;52468;40.116;18.296;2023-04-01T04:39:02;15.20;84.00
51811;DHT22;52468;40.116;18.296;2023-04-01T04:41:33;15.20;84.10
51811;DHT22;52468;40.116;18.296;2023-04-01T04:44:01;15.20;84.00
51811;DHT22;52468;40.116;18.296;2023-04-01T04:46:29;15.30;84.00
51811;DHT22;52468;40.116;18.296;2023-04-01T04:49:07;15.20;84.10
51811;DHT22;52468;40.116;18.296;2023-04-01T04:51:35;15.20;84.20
51811;DHT22;52468;40.116;18.296;2023-04-01T04:54:04;15.30;84.30
51811;DHT22;52468;40.116;18.296;2023-04-01T04:56:53;15.30;84.30
51811;DHT22;52468;40.116;18.296;2023-04-01T04:59:23;15.30;84.40
51811;DHT22;52468;40.116;18.296;2023-04-01T05:02:17;15.40;84.60
51811;DHT22;52468;40.116;18.296;2023-04-01T05:04:45;15.50;84.80
51811;DHT22;52468;40.116;18.296;2023-04-01T05:07:13;15.60;84.70
51811;DHT22;52468;40.116;18.296;2023-04-01T05:09:42;15.80;84.50
51811;DHT22;52468;40.116;18.296;2023-04-01T05:12:10;15.90;84.30
51811;DHT22;52468;40.116;18.296;2023-04-01T05:14:55;16.00;84.30
51811;DHT22;52468;40.116;18.296;2023-04-01T05:17:23;16.00;84.20
51811;DHT22;52468;40.116;18.296;2023-04-01T05:19:52;16.20;84.00
51811;DHT22;52468;40.116;18.296;2023-04-01T05:22:20;16.30;84.10
51811;DHT22;52468;40.116;18.296;2023-04-01T05:24:48;16.30;84.20
51811;DHT22;52468;40.116;18.296;2023-04-01T05:27:17;16.40;84.10
51811;DHT22;52468;40.116;18.296;2023-04-01T05:29:44;16.60;83.70
51811;DHT22;52468;40.116;18.296;2023-04-01T05:32:42;16.60;83.50
51811;DHT22;52468;40.116;18.296;2023-04-01T05:35:11;16.70;83.10
51811;DHT22;52468;40.116;18.296;2023-04-01T05:37:39;16.80;83.30
51811;DHT22;52468;40.116;18.296;2023-04-01T05:40:07;16.80;83.00
51811;DHT22;52468;40.116;18.296;2023-04-01T05:42:35;16.90;83.10
51811;DHT22;52468;40.116;18.296;2023-04-01T05:45:05;17.00;82.90
51811;DHT22;52468;40.116;18.296;2023-04-01T05:48:05;17.00;83.10
51811;DHT22;52468;40.116;18.296;2023-04-01T05:50:40;17.20;83.00
51811;DHT22;52468;40.116;18.296;2023-04-01T05:53:10;17.20;82.50
51811;DHT22;52468;40.116;18.296;2023-04-01T05:55:41;17.10;82.50
51811;DHT22;52468;40.116;18.296;2023-04-01T05:58:09;17.20;82.60
51811;DHT22;52468;40.116;18.296;2023-04-01T06:00:39;17.30;82.70
51811;DHT22;52468;40.116;18.296;2023-04-01T06:03:06;17.40;82.70
51811;DHT22;52468;40.116;18.296;2023-04-01T06:05:40;17.50;82.80
51811;DHT22;52468;40.116;18.296;2023-04-01T06:08:15;17.60;82.50
51811;DHT22;52468;40.116;18.296;2023-04-01T06:13:42;18.00;82.40
51811;DHT22;52468;40.116;18.296;2023-04-01T06:19:52;18.10;81.30
51811;DHT22;52468;40.116;18.296;2023-04-01T06:25:10;18.10;81.80
51811;DHT22;52468;40.116;18.296;2023-04-01T06:43:48;19.50;78.50
51811;DHT22;52468;40.116;18.296;2023-04-01T06:55:57;20.30;71.40
51811;DHT22;52468;40.116;18.296;2023-04-01T06:58:58;20.30;67.70
51811;DHT22;52468;40.116;18.296;2023-04-01T07:01:44;20.40;65.30
51811;DHT22;52468;40.116;18.296;2023-04-01T07:04:35;20.50;62.20
51811;DHT22;52468;40.116;18.296;2023-04-01T07:09:53;20.50;59.30
51811;DHT22;52468;40.116;18.296;2023-04-01T07:15:32;20.50;58.50
51811;DHT22;52468;40.116;18.296;2023-04-01T07:18:09;20.70;57.90
51811;DHT22;52468;40.116;18.296;2023-04-01T07:20:39;20.90;57.10
51811;DHT22;52468;40.116;18.296;2023-04-01T07:23:22;20.90;56.60
51811;DHT22;52468;40.116;18.296;2023-04-01T07:26:20;21.00;56.50
51811;DHT22;52468;40.116;18.296;2023-04-01T07:28:54;21.10;56.60
51811;DHT22;52468;40.116;18.296;2023-04-01T07:43:44;21.30;56.30
51811;DHT22;52468;40.116;18.296;2023-04-01T07:49:15;21.50;56.20
51811;DHT22;52468;40.116;18.296;2023-04-01T07:52:06;21.60;55.70
51811;DHT22;52468;40.116;18.296;2023-04-01T08:03:33;22.00;55.00
51811;DHT22;52468;40.116;18.296;2023-04-01T08:21:02;21.90;54.50
51811;DHT22;52468;40.116;18.296;2023-04-01T08:23:36;22.00;53.80
51811;DHT22;52468;40.116;18.296;2023-04-01T08:26:07;22.00;53.80
51811;DHT22;52468;40.116;18.296;2023-04-01T08:28:57;22.10;54.00
51811;DHT22;52468;40.116;18.296;2023-04-01T08:31:35;22.00;54.20
51811;DHT22;52468;40.116;18.296;2023-04-01T08:34:12;22.10;54.00
51811;DHT22;52468;40.116;18.296;2023-04-01T08:37:28;22.20;53.60
51811;DHT22;52468;40.116;18.296;2023-04-01T08:39:55;22.10;53.50
51811;DHT22;52468;40.116;18.296;2023-04-01T08:42:48;22.10;54.10
51811;DHT22;52468;40.116;18.296;2023-04-01T08:53:55;22.20;53.90
51811;DHT22;52468;40.116;18.296;2023-04-01T09:19:40;22.80;50.80
51811;DHT22;52468;40.116;18.296;2023-04-01T09:22:46;22.50;50.60
51811;DHT22;52468;40.116;18.296;2023-04-01T09:25:22;22.50;51.30
51811;DHT22;52468;40.116;18.296;2023-04-01T09:27:57;22.80;51.30
51811;DHT22;52468;40.116;18.296;2023-04-01T09:36:28;22.90;50.60
51811;DHT22;52468;40.116;18.296;2023-04-01T09:39:04;22.90;50.20
51811;DHT22;52468;40.116;18.296;2023-04-01T09:44:50;22.80;50.90
51811;DHT22;52468;40.116;18.296;2023-04-01T10:07:06;22.70;49.30
51811;DHT22;52468;40.116;18.296;2023-04-01T10:18:24;23.30;48.10
51811;DHT22;52468;40.116;18.296;2023-04-01T10:24:18;23.40;47.20
51811;DHT22;52468;40.116;18.296;2023-04-01T10:27:15;23.30;48.20
51811;DHT22;52468;40.116;18.296;2023-04-01T10:36:05;23.60;46.10
51811;DHT22;52468;40.116;18.296;2023-04-01T10:41:19;23.60;46.30
51811;DHT22;52468;40.116;18.296;2023-04-01T10:47:21;24.00;46.30
51811;DHT22;52468;40.116;18.296;2023-04-01T10:53:12;24.50;44.20
51811;DHT22;52468;40.116;18.296;2023-04-01T10:56:29;24.40;43.80
51811;DHT22;52468;40.116;18.296;2023-04-01T11:03:07;24.40;43.20
51811;DHT22;52468;40.116;18.296;2023-04-01T11:17:57;24.00;44.20
51811;DHT22;52468;40.116;18.296;2023-04-01T11:21:01;24.10;45.10
51811;DHT22;52468;40.116;18.296;2023-04-01T11:32:20;25.40;41.60
51811;DHT22;52468;40.116;18.296;2023-04-01T11:44:14;24.90;41.40
51811;DHT22;52468;40.116;18.296;2023-04-01T11:47:28;24.90;40.80
51811;DHT22;52468;40.116;18.296;2023-04-01T11:50:11;24.70;41.10
51811;DHT22;52468;40.116;18.296;2023-04-01T11:58:55;24.80;39.40
51811;DHT22;52468;40.116;18.296;2023-04-01T12:10:18;25.60;39.00
51811;DHT22;52468;40.116;18.296;2023-04-01T12:15:58;25.60;38.50
51811;DHT22;52468;40.116;18.296;2023-04-01T12:18:57;25.60;38.90
51811;DHT22;52468;40.116;18.296;2023-04-01T12:35:44;25.40;38.10
51811;DHT22;52468;40.116;18.296;2023-04-01T12:41:29;25.20;38.10
51811;DHT22;52468;40.116;18.296;2023-04-01T12:55:32;25.00;37.20
51811;DHT22;52468;40.116;18.296;2023-04-01T12:58:54;24.90;38.30
51811;DHT22;52468;40.116;18.296;2023-04-01T13:04:12;25.10;38.40
51811;DHT22;52468;40.116;18.296;2023-04-01T13:12:36;25.30;36.50
51811;DHT22;52468;40.116;18.296;2023-04-01T13:21:14;25.10;35.80
51811;DHT22;52468;40.116;18.296;2023-04-01T13:26:38;24.80;36.00
51811;DHT22;52468;40.116;18.296;2023-04-01T14:04:46;29.00;27.80
51811;DHT22;52468;40.116;18.296;2023-04-01T14:10:19;30.00;26.70
51811;DHT22;52468;40.116;18.296;2023-04-01T14:18:37;31.90;24.30
51811;DHT22;52468;40.116;18.296;2023-04-01T14:21:24;32.10;23.90
51811;DHT22;52468;40.116;18.296;2023-04-01T14:42:03;30.00;24.80
51811;DHT22;52468;40.116;18.296;2023-04-01T14:47:54;28.50;26.40
51811;DHT22;52468;40.116;18.296;2023-04-01T14:50:26;28.00;27.10
51811;DHT22;52468;40.116;18.296;2023-04-01T14:53:28;27.50;28.00
51811;DHT22;52468;40.116;18.296;2023-04-01T14:56:01;27.30;29.10
51811;DHT22;52468;40.116;18.296;2023-04-01T14:58:50;28.00;28.70
51811;DHT22;52468;40.116;18.296;2023-04-01T15:19:08;24.10;37.10
51811;DHT22;52468;40.116;18.296;2023-04-01T15:21:55;23.50;40.30
51811;DHT22;52468;40.116;18.296;2023-04-01T15:24:48;22.90;42.50
51811;DHT22;52468;40.116;18.296;2023-04-01T15:43:41;22.50;43.90
51811;DHT22;52468;40.116;18.296;2023-04-01T15:46:48;22.50;44.00
51811;DHT22;52468;40.116;18.296;2023-04-01T15:49:38;22.60;43.50
51811;DHT22;52468;40.116;18.296;2023-04-01T16:03:52;22.30;41.60
51811;DHT22;52468;40.116;18.296;2023-04-01T16:06:53;22.30;43.00
51811;DHT22;52468;40.116;18.296;2023-04-01T16:17:54;22.10;46.60
51811;DHT22;52468;40.116;18.296;2023-04-01T16:20:53;21.90;47.20
51811;DHT22;52468;40.116;18.296;2023-04-01T16:24:04;21.80;47.10
51811;DHT22;52468;40.116;18.296;2023-04-01T16:26:43;22.00;46.80
51811;DHT22;52468;40.116;18.296;2023-04-01T16:31:50;22.00;46.30
51811;DHT22;52468;40.116;18.296;2023-04-01T16:35:00;21.80;46.50
51811;DHT22;52468;40.116;18.296;2023-04-01T16:37:36;21.50;47.10
51811;DHT22;52468;40.116;18.296;2023-04-01T16:43:11;21.10;47.90
51811;DHT22;52468;40.116;18.296;2023-04-01T16:51:52;20.40;49.50
51811;DHT22;52468;40.116;18.296;2023-04-01T17:02:28;20.20;50.20
51811;DHT22;52468;40.116;18.296;2023-04-01T17:05:05;20.00;51.00
51811;DHT22;52468;40.116;18.296;2023-04-01T17:07:48;20.00;51.20
51811;DHT22;52468;40.116;18.296;2023-04-01T17:10:56;19.80;51.60
51811;DHT22;52468;40.116;18.296;2023-04-01T17:34:29;19.10;53.90
51811;DHT22;52468;40.116;18.296;2023-04-01T17:40:52;19.00;54.00
51811;DHT22;52468;40.116;18.296;2023-04-01T17:51:30;18.70;54.80
51811;DHT22;52468;40.116;18.296;2023-04-01T17:59:36;18.50;55.10
51811;DHT22;52468;40.116;18.296;2023-04-01T18:11:31;18.40;55.10
51811;DHT22;52468;40.116;18.296;2023-04-01T18:14:21;18.40;55.10
51811;DHT22;52468;40.116;18.296;2023-04-01T18:23:22;18.40;54.90
51811;DHT22;52468;40.116;18.296;2023-04-01T18:26:03;18.40;55.00
51811;DHT22;52468;40.116;18.296;2023-04-01T18:28:54;18.30;55.10
51811;DHT22;52468;40.116;18.296;2023-04-01T18:31:31;18.20;55.30
51811;DHT22;52468;40.116;18.296;2023-04-01T18:34:12;18.20;55.60
51811;DHT22;52468;40.116;18.296;2023-04-01T18:36:50;18.20;56.00
51811;DHT22;52468;40.116;18.296;2023-04-01T18:39:34;18.20;56.30
51811;DHT22;52468;40.116;18.296;2023-04-01T18:52:31;17.90;56.90
51811;DHT22;52468;40.116;18.296;2023-04-01T18:57:51;17.80;56.70
51811;DHT22;52468;40.116;18.296;2023-04-01T19:00:34;17.60;56.40
51811;DHT22;52468;40.116;18.296;2023-04-01T19:03:25;17.50;55.80
51811;DHT22;52468;40.116;18.296;2023-04-01T19:06:00;17.40;55.10
51811;DHT22;52468;40.116;18.296;2023-04-01T19:08:32;17.30;54.70
51811;DHT22;52468;40.116;18.296;2023-04-01T19:11:37;17.20;54.60
51811;DHT22;52468;40.116;18.296;2023-04-01T19:14:52;17.10;53.80
51811;DHT22;52468;40.116;18.296;2023-04-01T19:20:42;17.00;52.60
51811;DHT22;52468;40.116;18.296;2023-04-01T19:26:26;16.60;52.20
51811;DHT22;52468;40.116;18.296;2023-04-01T19:32:16;16.50;52.30
51811;DHT22;52468;40.116;18.296;2023-04-01T19:37:54;16.30;52.80
51811;DHT22;52468;40.116;18.296;2023-04-01T19:40:46;16.20;52.80
51811;DHT22;52468;40.116;18.296;2023-04-01T19:46:23;16.10;53.40
51811;DHT22;52468;40.116;18.296;2023-04-01T19:54:21;16.00;53.80
51811;DHT22;52468;40.116;18.296;2023-04-01T19:57:30;16.00;54.10
51811;DHT22;52468;40.116;18.296;2023-04-01T20:05:28;16.00;54.40
51811;DHT22;52468;40.116;18.296;2023-04-01T20:20:23;16.00;54.90
51811;DHT22;52468;40.116;18.296;2023-04-01T20:25:33;16.00;55.30
51811;DHT22;52468;40.116;18.296;2023-04-01T20:42:00;15.90;56.70
51811;DHT22;52468;40.116;18.296;2023-04-01T20:51:14;16.00;57.20
51811;DHT22;52468;40.116;18.296;2023-04-01T21:16:49;16.10;60.30
51811;DHT22;52468;40.116;18.296;2023-04-01T21:25:21;16.30;60.40
51811;DHT22;52468;40.116;18.296;2023-04-01T21:58:32;16.20;59.30
51811;DHT22;52468;40.116;18.296;2023-04-01T22:06:33;16.30;58.40
51811;DHT22;52468;40.116;18.296;2023-04-01T22:09:35;16.30;58.20
51811;DHT22;52468;40.116;18.296;2023-04-01T22:12:20;16.20;58.00
51811;DHT22;52468;40.116;18.296;2023-04-01T22:15:13;16.20;57.90
51811;DHT22;52468;40.116;18.296;2023-04-01T22:17:52;16.30;57.70
51811;DHT22;52468;40.116;18.296;2023-04-01T22:20:40;16.20;57.70
51811;DHT22;52468;40.116;18.296;2023-04-01T22:23:32;16.10;57.60
51811;DHT22;52468;40.116;18.296;2023-04-01T22:26:22;16.10;57.40
51811;DHT22;52468;40.116;18.296;2023-04-01T22:31:58;16.20;56.80
51811;DHT22;52468;40.116;18.296;2023-04-01T22:34:45;16.10;56.70
51811;DHT22;52468;40.116;18.296;2023-04-01T22:37:27;16.10;57.00
51811;DHT22;52468;40.116;18.296;2023-04-01T22:42:53;16.10;56.80
51811;DHT22;52468;40.116;18.296;2023-04-01T22:45:33;16.00;57.00
51811;DHT22;52468;40.116;18.296;2023-04-01T22:50:54;16.00;57.10
51811;DHT22;52468;40.116;18.296;2023-04-01T22:56:41;16.10;57.00
51811;DHT22;52468;40.116;18.296;2023-04-01T22:59:21;16.00;57.30
51811;DHT22;52468;40.116;18.296;2023-04-01T23:01:59;16.00;57.20
51811;DHT22;52468;40.116;18.296;2023-04-01T23:04:35;16.10;57.10
51811;DHT22;52468;40.116;18.296;2023-04-01T23:07:25;16.00;57.30
51811;DHT22;52468;40.116;18.296;2023-04-01T23:09:58;16.00;57.40
51811;DHT22;52468;40.116;18.296;2023-04-01T23:12:27;15.90;57.70
51811;DHT22;52468;40.116;18.296;2023-04-01T23:14:58;15.80;57.80
51811;DHT22;52468;40.116;18.296;2023-04-01T23:26:46;15.80;58.10
51811;DHT22;52468;40.116;18.296;2023-04-01T23:28:48;15.90;58.00
51811;DHT22;52468;40.116;18.296;2023-04-01T23:36:46;15.80;58.10
51811;DHT22;52468;40.116;18.296;2023-04-01T23:42:01;15.80;58.30
51811;DHT22;52468;40.116;18.296;2023-04-01T23:44:31;15.70;58.30
51811;DHT22;52468;40.116;18.296;2023-04-01T23:47:00;15.80;58.40
51811;DHT22;52468;40.116;18.296;2023-04-01T23:49:34;15.60;59.10
51811;DHT22;52468;40.116;18.296;2023-04-01T23:52:14;15.60;59.40
51811;DHT22;52468;40.116;18.296;2023-04-01T23:54:55;15.60;59.70
51811;DHT22;52468;40.116;18.296;2023-04-01T23:57:32;15.50;60.10
